Mission Valley, Texas
Current Conditions -  °F | °C
As of 3:51 AM on Wednesday 26 Nov 2014 (Local Time) from KVCT Reporting Station
Clear Clear  
Wind Chill: 43°   Ceiling: Unl
Heat Index: 47°   Visibility: 10mi
Dew Point: 39°   Wind: 9mph
Humidity: 74%   Direction: 230°SW
Pressure: 30.23"   Gusts: NA
Location:  28.7094°N, 97.0351°W
Report Text: KVCT 260951Z AUTO 23008KT 10SM CLR 08/04 A3023 RMK AO2 SLP236 T00830039
Loading
Personal Weather Stations






























Interactive Weather Map New forecast layout! Learn more

10-Day Weather Forecast

Advertisements
Track Severe Weather on mobile